createdAt,value
2023-03-12T00:01:54.674Z,101296.41
2023-03-12T00:04:00.119Z,101297.28
2023-03-12T00:06:11.007Z,101299.88
2023-03-12T00:08:16.605Z,101295.56
2023-03-12T00:10:21.534Z,101291.22
2023-03-12T00:12:26.260Z,101298.16
2023-03-12T00:14:31.256Z,101293.81
2023-03-12T00:16:35.982Z,101293.81
2023-03-12T00:18:41.066Z,101292.06
2023-03-12T00:20:45.898Z,101289.50
2023-03-12T00:22:53.504Z,101279.97
2023-03-12T00:24:59.522Z,101274.78
2023-03-12T00:27:04.247Z,101272.16
2023-03-12T00:29:09.176Z,101269.59
2023-03-12T00:31:18.894Z,101267.00
2023-03-12T00:33:23.590Z,101272.16
2023-03-12T00:35:28.555Z,101270.47
2023-03-12T00:37:33.590Z,101272.19
2023-03-12T00:39:42.060Z,101276.50
2023-03-12T00:41:47.468Z,101274.78
2023-03-12T00:43:53.330Z,101269.56
2023-03-12T00:45:58.043Z,101264.38
2023-03-12T00:48:02.881Z,101252.25
2023-03-12T00:50:08.421Z,101247.06
2023-03-12T00:52:13.250Z,101250.50
2023-03-12T00:54:17.998Z,101250.50
2023-03-12T00:56:25.520Z,101250.50
2023-03-12T00:58:30.279Z,101251.34
2023-03-12T01:00:35.045Z,101252.25
2023-03-12T01:02:40.392Z,101252.22
2023-03-12T01:04:45.034Z,101261.75
2023-03-12T01:06:50.026Z,101260.84
2023-03-12T01:08:55.554Z,101264.31
2023-03-12T01:11:00.608Z,101260.84
2023-03-12T01:13:07.890Z,101256.53
2023-03-12T01:15:16.318Z,101255.66
2023-03-12T01:17:21.434Z,101245.28
2023-03-12T01:19:26.135Z,101244.44
2023-03-12T01:21:31.999Z,101240.13
2023-03-12T01:23:37.052Z,101231.44
2023-03-12T01:25:41.742Z,101228.88
2023-03-12T01:27:46.670Z,101228.84
2023-03-12T01:29:53.988Z,101231.44
2023-03-12T01:31:58.786Z,101233.19
2023-03-12T01:34:03.525Z,101223.69
2023-03-12T01:36:20.821Z,101218.44
2023-03-12T01:38:25.710Z,101217.59
2023-03-12T01:40:30.538Z,101206.31
2023-03-12T01:42:35.427Z,101209.69
2023-03-12T01:44:59.920Z,101209.75
2023-03-12T01:47:04.578Z,101195.91
2023-03-12T01:49:13.736Z,101199.38
2023-03-12T01:51:20.330Z,101189.84
2023-03-12T01:53:25.874Z,101195.91
2023-03-12T01:55:30.614Z,101189.88
2023-03-12T01:57:39.928Z,101190.66
2023-03-12T01:59:49.856Z,101183.78
2023-03-12T02:01:57.615Z,101179.44
2023-03-12T02:04:03.461Z,101176.81
2023-03-12T02:06:12.921Z,101175.97
2023-03-12T02:08:19.947Z,101168.19
2023-03-12T02:10:25.731Z,101168.19
2023-03-12T02:12:30.493Z,101160.41
2023-03-12T02:14:35.644Z,101163.84
2023-03-12T02:16:40.464Z,101157.78
2023-03-12T02:18:49.962Z,101157.78
2023-03-12T02:21:02.966Z,101150.03
2023-03-12T02:23:15.868Z,101149.13
2023-03-12T02:25:33.375Z,101143.09
2023-03-12T02:27:40.892Z,101153.50
2023-03-12T02:29:47.579Z,101142.28
2023-03-12T02:31:56.907Z,101139.69
2023-03-12T02:34:01.793Z,101142.28
2023-03-12T02:36:07.149Z,101143.16
2023-03-12T02:38:34.616Z,101137.97
2023-03-12T02:40:46.917Z,101137.97
2023-03-12T02:42:51.933Z,101139.69
2023-03-12T02:44:57.134Z,101130.97
2023-03-12T02:47:04.042Z,101135.28
2023-03-12T02:49:09.076Z,101127.53
2023-03-12T02:51:14.432Z,101123.19
2023-03-12T02:53:19.298Z,101123.22
2023-03-12T02:55:23.968Z,101122.38
2023-03-12T02:57:31.864Z,101115.50
2023-03-12T02:59:36.697Z,101116.34
2023-03-12T03:01:41.775Z,101108.53
2023-03-12T03:03:47.222Z,101105.06
2023-03-12T03:05:52.324Z,101094.66
2023-03-12T03:07:57.666Z,101100.78
2023-03-12T03:10:04.427Z,101090.41
2023-03-12T03:12:10.032Z,101081.78
2023-03-12T03:14:17.446Z,101091.25
2023-03-12T03:16:22.216Z,101086.09
2023-03-12T03:18:26.893Z,101069.69
2023-03-12T03:20:31.574Z,101069.66
2023-03-12T03:22:36.933Z,101068.78
2023-03-12T03:24:41.625Z,101064.44
2023-03-12T03:26:47.082Z,101067.06
2023-03-12T03:28:52.306Z,101061.00
2023-03-12T03:31:02.309Z,101056.63
2023-03-12T03:33:07.404Z,101054.06
2023-03-12T03:35:12.929Z,101062.72
2023-03-12T03:37:17.630Z,101055.81
2023-03-12T03:39:22.458Z,101046.28
2023-03-12T03:41:27.301Z,101037.63
2023-03-12T03:43:34.828Z,101043.72
2023-03-12T03:45:39.819Z,101043.69
2023-03-12T03:47:47.273Z,101035.06
2023-03-12T03:49:52.487Z,101029.00
2023-03-12T03:51:57.572Z,101019.47
2023-03-12T03:54:02.797Z,101027.25
2023-03-12T03:56:11.813Z,101036.75
2023-03-12T03:58:16.752Z,101020.38
2023-03-12T04:00:22.484Z,101018.59
2023-03-12T04:02:27.643Z,101023.72
2023-03-12T04:04:35.210Z,101017.72
2023-03-12T04:06:40.986Z,101015.13
2023-03-12T04:08:45.910Z,101014.19
2023-03-12T04:10:50.816Z,101015.16
2023-03-12T04:12:55.686Z,101022.94
2023-03-12T04:15:03.188Z,101024.69
2023-03-12T04:17:07.863Z,101024.75
2023-03-12T04:19:12.626Z,101031.72
2023-03-12T04:21:20.015Z,101027.47
2023-03-12T04:23:24.960Z,101017.13
2023-03-12T04:25:29.680Z,101017.16
2023-03-12T04:27:34.432Z,100995.53
2023-03-12T04:29:40.905Z,100993.84
2023-03-12T04:31:47.500Z,100987.81
2023-03-12T04:33:52.449Z,100991.28
2023-03-12T04:35:57.994Z,100977.41
2023-03-12T04:38:06.726Z,100969.69
2023-03-12T04:40:16.509Z,100958.44
2023-03-12T04:42:21.427Z,100948.03
2023-03-12T04:44:26.412Z,100949.81
2023-03-12T04:46:31.706Z,100953.25
2023-03-12T04:48:36.744Z,100945.50
2023-03-12T04:50:42.704Z,100956.75
2023-03-12T04:52:47.463Z,100958.47
2023-03-12T04:54:55.379Z,100961.06
2023-03-12T04:57:00.516Z,100960.22
2023-03-12T04:59:05.796Z,100948.13
2023-03-12T05:01:11.704Z,100949.84
2023-03-12T05:03:17.099Z,100955.03
2023-03-12T05:05:22.356Z,100958.47
2023-03-12T05:07:27.190Z,100963.66
2023-03-12T05:09:32.180Z,100961.06
2023-03-12T05:11:40.991Z,100949.81
2023-03-12T05:13:46.552Z,100948.09
2023-03-12T05:15:52.448Z,100948.09
2023-03-12T05:17:59.644Z,100942.91
2023-03-12T05:20:04.455Z,100946.38
2023-03-12T05:22:11.592Z,100952.44
2023-03-12T05:24:16.456Z,100950.69
2023-03-12T05:26:23.241Z,100953.25
2023-03-12T05:28:31.321Z,100955.84
2023-03-12T05:30:38.934Z,100953.28
2023-03-12T05:32:46.834Z,100957.59
2023-03-12T05:34:51.928Z,100967.09
2023-03-12T05:36:56.611Z,100961.03
2023-03-12T05:39:01.666Z,100959.31
2023-03-12T05:41:07.198Z,100958.44
2023-03-12T05:43:11.981Z,100962.75
2023-03-12T05:45:19.755Z,100949.81
2023-03-12T05:47:26.739Z,100949.81
2023-03-12T05:49:31.669Z,100937.72
2023-03-12T05:51:36.726Z,100936.84
2023-03-12T05:53:41.506Z,100933.38
2023-03-12T05:55:46.653Z,100925.59
2023-03-12T05:57:54.138Z,100931.66
2023-03-12T05:59:58.754Z,100933.38
2023-03-12T06:02:07.636Z,100941.13
2023-03-12T06:04:12.337Z,100932.50
2023-03-12T06:06:19.844Z,100936.78
2023-03-12T06:08:24.509Z,100922.06
2023-03-12T06:10:29.583Z,100937.63
2023-03-12T06:12:34.263Z,100925.50
2023-03-12T06:14:38.871Z,100925.50
2023-03-12T06:16:44.140Z,100924.59
2023-03-12T06:18:52.576Z,100932.38
2023-03-12T06:20:58.496Z,100928.06
2023-03-12T06:23:03.297Z,100911.63
2023-03-12T06:25:11.425Z,100908.16
2023-03-12T06:27:18.027Z,100904.69
2023-03-12T06:29:22.863Z,100896.06
2023-03-12T06:31:29.895Z,100896.06
2023-03-12T06:33:35.413Z,100893.44
2023-03-12T06:35:43.157Z,100883.94
2023-03-12T06:37:47.853Z,100885.66
2023-03-12T06:39:52.745Z,100886.47
2023-03-12T06:41:58.706Z,100889.94
2023-03-12T06:44:06.195Z,100890.78
2023-03-12T06:46:15.191Z,100893.34
2023-03-12T06:48:19.970Z,100890.72
2023-03-12T06:50:26.511Z,100883.78
2023-03-12T06:52:33.808Z,100875.09
2023-03-12T06:54:38.609Z,100882.00
2023-03-12T06:56:43.879Z,100875.97
2023-03-12T06:58:51.853Z,100886.31
2023-03-12T07:00:57.975Z,100892.34
2023-03-12T07:03:02.943Z,100883.66
2023-03-12T07:05:08.582Z,100883.66
2023-03-12T07:07:14.557Z,100889.69
2023-03-12T07:09:24.309Z,100893.16
2023-03-12T07:11:29.112Z,100892.25
2023-03-12T07:13:33.853Z,100892.25
2023-03-12T07:15:38.809Z,100904.34
2023-03-12T07:17:44.346Z,100905.19
2023-03-12T07:19:49.922Z,100906.06
2023-03-12T07:21:55.419Z,100895.63
2023-03-12T07:24:01.126Z,100901.66
2023-03-12T07:26:09.712Z,100899.06
2023-03-12T07:28:17.714Z,100887.78
2023-03-12T07:30:22.423Z,100892.97
2023-03-12T07:32:29.095Z,100886.94
2023-03-12T07:34:33.970Z,100890.31
2023-03-12T07:36:39.836Z,100894.63
2023-03-12T07:38:44.933Z,100896.38
2023-03-12T07:40:53.616Z,100898.91
2023-03-12T07:43:01.254Z,100908.38
2023-03-12T07:45:08.116Z,100902.28
2023-03-12T07:47:23.703Z,100908.28
2023-03-12T07:49:32.900Z,100908.22
2023-03-12T07:51:37.888Z,100909.91
2023-03-12T07:53:42.738Z,100917.72
2023-03-12T07:55:48.886Z,100915.03
2023-03-12T07:57:58.585Z,100915.00
2023-03-12T08:00:11.182Z,100915.78
2023-03-12T08:02:16.308Z,100913.97
2023-03-12T08:04:21.376Z,100917.34
2023-03-12T08:06:26.475Z,100919.91
2023-03-12T08:08:32.883Z,100925.09
2023-03-12T08:10:43.171Z,100919.69
2023-03-12T08:12:48.136Z,100922.28
2023-03-12T08:14:53.236Z,100923.84
2023-03-12T08:17:01.947Z,100927.13
2023-03-12T08:19:06.662Z,100922.66
2023-03-12T08:21:16.537Z,100922.44
2023-03-12T08:23:22.517Z,100930.13
2023-03-12T08:25:27.402Z,100923.13
2023-03-12T08:27:32.652Z,100929.97
2023-03-12T08:29:39.859Z,100934.16
2023-03-12T08:32:01.510Z,100930.53
2023-03-12T08:34:11.196Z,100930.47
2023-03-12T08:36:16.334Z,100937.31
2023-03-12T08:38:21.360Z,100943.25
2023-03-12T08:40:31.273Z,100944.97
2023-03-12T08:42:35.914Z,100950.88
2023-03-12T08:44:40.909Z,100956.84
2023-03-12T08:46:47.882Z,100960.22
2023-03-12T08:48:56.987Z,100942.69
2023-03-12T08:51:07.729Z,100939.09
2023-03-12T08:53:14.014Z,100937.22
2023-03-12T08:55:19.974Z,100933.59
2023-03-12T08:57:25.586Z,100934.19
2023-03-12T08:59:32.838Z,100933.22
2023-03-12T09:01:43.058Z,100933.91
2023-03-12T09:03:51.082Z,100938.97
2023-03-12T09:06:13.432Z,100932.59
2023-03-12T09:08:19.325Z,100934.06
2023-03-12T09:10:24.005Z,100936.34
2023-03-12T09:12:29.285Z,100939.72
2023-03-12T09:15:02.149Z,100949.09
2023-03-12T09:16:59.075Z,100943.72
2023-03-12T09:19:04.263Z,100946.97
2023-03-12T09:21:11.806Z,100949.44
2023-03-12T09:23:19.289Z,100952.63
2023-03-12T09:25:24.192Z,100945.31
2023-03-12T09:27:29.151Z,100946.78
2023-03-12T09:29:41.392Z,100941.25
2023-03-12T09:31:51.235Z,100949.56
2023-03-12T09:34:04.548Z,100946.72
2023-03-12T09:36:13.310Z,100948.31
2023-03-12T09:38:24.108Z,100956.88
2023-03-12T09:40:33.157Z,100957.72
2023-03-12T09:42:45.495Z,100963.69
2023-03-12T09:44:53.790Z,100961.91
2023-03-12T09:47:02.115Z,100959.88
2023-03-12T09:49:19.155Z,100960.47
2023-03-12T09:51:29.865Z,100963.75
2023-03-12T09:53:38.724Z,100958.31
2023-03-12T09:55:48.214Z,100961.63
2023-03-12T09:57:55.614Z,100968.53
2023-03-12T10:00:00.765Z,100961.53
2023-03-12T10:02:18.965Z,100962.97
2023-03-12T10:04:58.885Z,100962.81
2023-03-12T10:07:12.647Z,100965.34
2023-03-12T10:09:32.143Z,100964.50
2023-03-12T10:11:47.070Z,100966.34
2023-03-12T10:14:05.762Z,100974.97
2023-03-12T10:16:21.058Z,100967.75
2023-03-12T10:18:44.759Z,100967.84
2023-03-12T10:21:02.849Z,100969.50
2023-03-12T10:23:16.041Z,100966.88
2023-03-12T10:25:25.321Z,100968.56
2023-03-12T10:27:34.277Z,100965.84
2023-03-12T10:29:44.984Z,100959.53
2023-03-12T10:32:00.451Z,100966.41
2023-03-12T10:34:21.241Z,100964.78
2023-03-12T10:36:31.236Z,100969.28
2023-03-12T10:38:41.601Z,100972.00
2023-03-12T10:40:48.032Z,100964.03
2023-03-12T10:42:54.433Z,100963.94
2023-03-12T10:45:04.620Z,100965.53
2023-03-12T10:47:29.799Z,100965.28
2023-03-12T10:49:38.279Z,100978.25
2023-03-12T10:51:58.067Z,100965.25
2023-03-12T10:54:24.918Z,100973.34
2023-03-12T10:56:32.640Z,100983.09
2023-03-12T10:58:41.349Z,100987.47
2023-03-12T11:01:00.113Z,100993.50
2023-03-12T11:03:11.652Z,101003.88
2023-03-12T11:05:27.270Z,101008.09
2023-03-12T11:07:33.335Z,100998.28
2023-03-12T11:09:42.574Z,100999.00
2023-03-12T11:11:50.220Z,101005.88
2023-03-12T11:14:10.860Z,100994.50
2023-03-12T11:16:31.905Z,101004.81
2023-03-12T11:18:41.337Z,100993.22
2023-03-12T11:20:46.612Z,100999.38
2023-03-12T11:22:59.301Z,100996.47
2023-03-12T11:25:09.076Z,101004.38
2023-03-12T11:27:32.921Z,100998.16
2023-03-12T11:29:41.811Z,100992.09
2023-03-12T11:32:03.653Z,100996.06
2023-03-12T11:34:11.064Z,100993.53
2023-03-12T11:36:41.800Z,100995.97
2023-03-12T11:38:54.010Z,100992.06
2023-03-12T11:41:13.698Z,100984.19
2023-03-12T11:43:43.761Z,100977.03
2023-03-12T11:46:13.664Z,100974.97
2023-03-12T11:48:27.911Z,100970.47
2023-03-12T11:50:47.568Z,100965.19
2023-03-12T11:53:08.503Z,100958.91
2023-03-12T11:55:22.510Z,100960.34
2023-03-12T11:57:38.772Z,100962.31
2023-03-12T12:00:01.621Z,100964.06
2023-03-12T12:02:23.327Z,100954.31
2023-03-12T12:04:57.496Z,100960.69
2023-03-12T12:07:11.623Z,100954.94
2023-03-12T12:09:26.542Z,100946.50
2023-03-12T12:11:41.163Z,100963.59
2023-03-12T12:13:58.503Z,100962.81
2023-03-12T12:16:19.386Z,100958.38
2023-03-12T12:18:45.121Z,100980.88
2023-03-12T12:20:58.546Z,100965.53
2023-03-12T12:23:17.882Z,100964.69
2023-03-12T12:25:52.647Z,100960.59
2023-03-12T12:28:14.397Z,100959.41
2023-03-12T12:30:28.839Z,100955.44
2023-03-12T12:32:45.643Z,100952.41
2023-03-12T12:35:04.889Z,100933.81
2023-03-12T12:37:40.039Z,100937.38
2023-03-12T12:39:50.069Z,100937.31
2023-03-12T12:41:58.667Z,100927.97
2023-03-12T12:44:08.218Z,100917.25
2023-03-12T12:46:19.755Z,100916.38
2023-03-12T12:48:28.426Z,100927.41
2023-03-12T12:50:36.740Z,100921.19
2023-03-12T12:52:41.872Z,100920.72
2023-03-12T12:54:58.541Z,100900.19
2023-03-12T12:57:09.401Z,100900.88
2023-03-12T12:59:36.746Z,100893.25
2023-03-12T13:01:45.458Z,100896.00
2023-03-12T13:03:52.236Z,100889.72
2023-03-12T13:05:59.850Z,100898.97
2023-03-12T13:08:06.456Z,100893.38
2023-03-12T13:10:52.927Z,100904.53
2023-03-12T13:13:07.614Z,100903.63
2023-03-12T13:15:40.252Z,100911.06
2023-03-12T13:18:11.825Z,100902.88
2023-03-12T13:20:21.016Z,100901.91
2023-03-12T13:22:34.030Z,100891.38
2023-03-12T13:24:45.475Z,100904.69
2023-03-12T13:26:56.840Z,100907.16
2023-03-12T13:29:16.820Z,100931.88
2023-03-12T13:31:54.424Z,100915.22
2023-03-12T13:34:11.239Z,100918.59
2023-03-12T13:36:28.368Z,100916.78
2023-03-12T13:38:43.492Z,100919.44
2023-03-12T13:41:07.963Z,100919.94
2023-03-12T13:43:16.571Z,100925.72
2023-03-12T13:45:32.032Z,100920.59
2023-03-12T13:47:45.329Z,100910.91
2023-03-12T13:49:58.084Z,100908.94
2023-03-12T13:52:24.564Z,100923.22
2023-03-12T13:54:34.664Z,100937.56
2023-03-12T13:56:40.160Z,100941.97
2023-03-12T13:58:51.651Z,100942.44
2023-03-12T14:00:59.700Z,100940.19
2023-03-12T14:03:09.117Z,100939.69
2023-03-12T14:05:19.048Z,100937.13
2023-03-12T14:07:45.363Z,100946.97
2023-03-12T14:10:07.528Z,100947.44
2023-03-12T14:12:17.595Z,100945.19
2023-03-12T14:14:42.412Z,100951.91
2023-03-12T14:16:49.522Z,100943.75
2023-03-12T14:18:55.445Z,100950.59
2023-03-12T14:21:05.450Z,100955.72
2023-03-12T14:23:16.301Z,100959.63
2023-03-12T14:25:31.894Z,100945.59
2023-03-12T14:27:37.139Z,100949.41
2023-03-12T14:29:47.940Z,100957.97
2023-03-12T14:31:54.984Z,100945.13
2023-03-12T14:34:03.381Z,100946.16
2023-03-12T14:36:17.538Z,100951.13
2023-03-12T14:38:28.213Z,100949.34
2023-03-12T14:40:42.555Z,100942.75
2023-03-12T14:42:47.580Z,100946.97
2023-03-12T14:45:00.421Z,100942.34
2023-03-12T14:47:10.127Z,100944.00
2023-03-12T14:49:23.380Z,100940.94
2023-03-12T14:51:32.661Z,100942.03
2023-03-12T14:53:39.739Z,100936.84
2023-03-12T14:55:44.920Z,100942.44
2023-03-12T14:57:49.684Z,100939.81
2023-03-12T14:59:59.271Z,100940.72
2023-03-12T15:02:08.048Z,100939.78
2023-03-12T15:04:19.651Z,100927.78
2023-03-12T15:06:31.939Z,100939.84
2023-03-12T15:08:42.535Z,100932.53
2023-03-12T15:10:51.866Z,100934.25
2023-03-12T15:12:59.519Z,100925.47
2023-03-12T15:15:07.854Z,100931.66
2023-03-12T15:17:19.855Z,100927.25
2023-03-12T15:19:29.143Z,100920.47
2023-03-12T15:21:38.576Z,100929.03
2023-03-12T15:23:48.284Z,100931.94
2023-03-12T15:26:15.164Z,100926.00
2023-03-12T15:28:30.969Z,100915.72
2023-03-12T15:30:38.791Z,100913.53
2023-03-12T15:32:47.063Z,100903.88
2023-03-12T15:34:51.875Z,100901.31
2023-03-12T15:36:59.297Z,100905.94
2023-03-12T15:39:07.335Z,100909.50
2023-03-12T15:41:12.375Z,100900.75
2023-03-12T15:43:21.116Z,100899.78
2023-03-12T15:45:27.934Z,100896.47
2023-03-12T15:47:36.575Z,100886.78
2023-03-12T15:49:41.937Z,100901.78
2023-03-12T15:52:05.069Z,100910.84
2023-03-12T15:54:27.438Z,100909.75
2023-03-12T15:56:35.626Z,100921.25
2023-03-12T15:58:42.792Z,100911.75
2023-03-12T16:00:49.274Z,100919.81
2023-03-12T16:02:59.088Z,100911.31
2023-03-12T16:05:03.806Z,100904.47
2023-03-12T16:07:15.166Z,100902.09
2023-03-12T16:09:22.680Z,100899.75
2023-03-12T16:11:30.808Z,100898.06
2023-03-12T16:13:37.389Z,100901.63
2023-03-12T16:15:42.521Z,100910.38
2023-03-12T16:17:48.542Z,100909.50
2023-03-12T16:19:53.179Z,100921.25
2023-03-12T16:22:00.153Z,100913.03
2023-03-12T16:24:07.962Z,100920.31
2023-03-12T16:26:18.118Z,100910.78
2023-03-12T16:28:24.140Z,100902.56
2023-03-12T16:30:31.479Z,100904.97
2023-03-12T16:32:36.234Z,100900.88
2023-03-12T16:34:41.213Z,100900.44
2023-03-12T16:36:46.255Z,100910.03
2023-03-12T16:38:50.833Z,100903.16
2023-03-12T16:40:58.233Z,100903.28
2023-03-12T16:43:05.972Z,100906.81
2023-03-12T16:45:14.181Z,100914.66
2023-03-12T16:47:19.268Z,100920.66
2023-03-12T16:49:23.964Z,100921.75
2023-03-12T16:51:30.694Z,100908.78
2023-03-12T16:53:35.661Z,100907.75
2023-03-12T16:55:50.062Z,100912.47
2023-03-12T16:58:00.441Z,100914.09
2023-03-12T17:00:08.221Z,100921.91
2023-03-12T17:02:18.242Z,100921.00
2023-03-12T17:04:23.024Z,100912.44
2023-03-12T17:06:29.696Z,100909.75
2023-03-12T17:08:36.058Z,100914.09
2023-03-12T17:10:41.070Z,100908.91
2023-03-12T17:12:48.329Z,100910.81
2023-03-12T17:14:56.339Z,100904.72
2023-03-12T17:17:01.033Z,100895.16
2023-03-12T17:19:06.236Z,100908.97
2023-03-12T17:21:14.080Z,100910.88
2023-03-12T17:23:19.262Z,100909.13
2023-03-12T17:25:26.851Z,100917.94
2023-03-12T17:27:31.554Z,100920.56
2023-03-12T17:29:39.208Z,100904.88
2023-03-12T17:31:48.423Z,100908.44
2023-03-12T17:33:54.507Z,100907.69
2023-03-12T17:36:01.153Z,100896.38
2023-03-12T17:38:05.942Z,100899.09
2023-03-12T17:40:12.259Z,100918.31
2023-03-12T17:42:16.940Z,100901.63
2023-03-12T17:44:22.934Z,100905.19
2023-03-12T17:46:28.009Z,100905.19
2023-03-12T17:48:35.734Z,100897.25
2023-03-12T17:50:41.082Z,100889.50
2023-03-12T17:52:46.278Z,100907.00
2023-03-12T17:54:52.156Z,100899.19
2023-03-12T17:56:57.106Z,100907.16
2023-03-12T17:59:02.026Z,100894.84
2023-03-12T18:01:07.067Z,100907.16
2023-03-12T18:03:13.377Z,100894.00
2023-03-12T18:05:20.772Z,100901.88
2023-03-12T18:07:25.476Z,100901.06
2023-03-12T18:09:30.333Z,100896.56
2023-03-12T18:11:34.981Z,100900.09
2023-03-12T18:13:42.547Z,100888.78
2023-03-12T18:15:54.630Z,100889.63
2023-03-12T18:18:01.041Z,100891.44
2023-03-12T18:20:12.333Z,100899.19
2023-03-12T18:22:20.152Z,100893.09
2023-03-12T18:24:24.803Z,100900.22
2023-03-12T18:26:29.636Z,100896.03
2023-03-12T18:28:34.381Z,100896.94
2023-03-12T18:30:39.084Z,100887.41
2023-03-12T18:32:44.253Z,100897.75
2023-03-12T18:34:50.273Z,100899.50
2023-03-12T18:36:54.890Z,100888.91
2023-03-12T18:39:04.694Z,100883.66
2023-03-12T18:41:10.655Z,100885.59
2023-03-12T18:43:15.579Z,100883.06
2023-03-12T18:45:20.440Z,100874.28
2023-03-12T18:47:26.148Z,100878.56
2023-03-12T18:49:30.832Z,100874.25
2023-03-12T18:51:35.534Z,100868.97
2023-03-12T18:53:40.278Z,100870.66
2023-03-12T18:55:53.850Z,100871.47
2023-03-12T18:57:58.747Z,100872.34
2023-03-12T19:00:03.711Z,100865.31
2023-03-12T19:02:08.467Z,100867.06
2023-03-12T19:04:19.511Z,100871.38
2023-03-12T19:06:24.227Z,100873.19
2023-03-12T19:08:41.421Z,100866.03
2023-03-12T19:10:54.563Z,100867.78
2023-03-12T19:12:59.363Z,100873.16
2023-03-12T19:15:04.171Z,100865.31
2023-03-12T19:17:09.004Z,100866.25
2023-03-12T19:19:17.352Z,100866.38
2023-03-12T19:21:22.162Z,100856.66
2023-03-12T19:23:27.006Z,100861.16
2023-03-12T19:25:32.240Z,100861.25
2023-03-12T19:27:41.411Z,100866.50
2023-03-12T19:29:49.201Z,100870.22
2023-03-12T19:31:54.371Z,100864.03
2023-03-12T19:33:59.480Z,100852.72
2023-03-12T19:36:04.922Z,100863.16
2023-03-12T19:38:12.179Z,100849.22
2023-03-12T19:40:17.014Z,100845.75
2023-03-12T19:42:21.759Z,100839.59
2023-03-12T19:44:31.918Z,100846.53
2023-03-12T19:46:36.692Z,100843.06
2023-03-12T19:48:41.648Z,100830.06
2023-03-12T19:50:48.331Z,100825.56
2023-03-12T19:52:53.120Z,100825.41
2023-03-12T19:55:04.714Z,100821.88
2023-03-12T19:57:10.615Z,100811.50
2023-03-12T19:59:15.577Z,100812.34
2023-03-12T20:01:23.211Z,100810.72
2023-03-12T20:03:28.669Z,100804.66
2023-03-12T20:05:35.632Z,100801.13
2023-03-12T20:07:42.870Z,100802.72
2023-03-12T20:09:49.959Z,100785.94
2023-03-12T20:11:54.777Z,100787.84
2023-03-12T20:13:59.861Z,100783.56
2023-03-12T20:16:05.223Z,100787.97
2023-03-12T20:18:13.153Z,100780.56
2023-03-12T20:20:20.384Z,100779.72
2023-03-12T20:22:28.336Z,100784.16
2023-03-12T20:24:33.260Z,100771.22
2023-03-12T20:26:41.920Z,100765.91
2023-03-12T20:28:47.046Z,100749.97
2023-03-12T20:30:51.764Z,100753.50
2023-03-12T20:32:58.814Z,100752.59
2023-03-12T20:35:06.414Z,100752.00
2023-03-12T20:37:11.248Z,100744.00
2023-03-12T20:39:17.248Z,100738.59
2023-03-12T20:41:22.043Z,100734.19
2023-03-12T20:43:26.784Z,100731.56
2023-03-12T20:45:33.222Z,100731.72
2023-03-12T20:47:40.535Z,100734.06
2023-03-12T20:49:45.411Z,100716.81
2023-03-12T20:51:53.032Z,100717.69
2023-03-12T20:53:58.294Z,100716.00
2023-03-12T20:56:06.550Z,100708.03
2023-03-12T20:58:11.625Z,100706.53
2023-03-12T21:00:16.976Z,100707.28
2023-03-12T21:02:21.994Z,100710.09
2023-03-12T21:04:27.029Z,100701.28
2023-03-12T21:06:35.447Z,100699.69
2023-03-12T21:08:43.242Z,100696.28
2023-03-12T21:10:50.706Z,100693.88
2023-03-12T21:12:55.554Z,100695.66
2023-03-12T21:15:06.508Z,100688.75
2023-03-12T21:17:13.855Z,100685.34
2023-03-12T21:19:21.197Z,100680.94
2023-03-12T21:21:26.544Z,100674.88
2023-03-12T21:23:43.217Z,100677.69
2023-03-12T21:25:48.189Z,100665.50
2023-03-12T21:27:52.980Z,100663.84
2023-03-12T21:29:57.938Z,100658.81
2023-03-12T21:32:02.729Z,100660.53
2023-03-12T21:34:09.514Z,100659.69
2023-03-12T21:36:16.496Z,100651.84
2023-03-12T21:38:21.344Z,100644.97
2023-03-12T21:40:29.031Z,100647.66
2023-03-12T21:42:35.838Z,100647.59
2023-03-12T21:44:43.804Z,100635.44
2023-03-12T21:46:49.090Z,100635.56
2023-03-12T21:48:54.018Z,100636.44
2023-03-12T21:50:59.167Z,100634.03
2023-03-12T21:53:11.597Z,100634.03
2023-03-12T21:55:22.568Z,100630.59
2023-03-12T21:57:30.602Z,100627.09
2023-03-12T21:59:35.607Z,100620.13
2023-03-12T22:01:40.697Z,100606.94
2023-03-12T22:03:47.569Z,100602.31
2023-03-12T22:05:55.660Z,100590.19
2023-03-12T22:08:02.024Z,100590.34
2023-03-12T22:10:07.541Z,100585.19
2023-03-12T22:12:12.625Z,100588.59
2023-03-12T22:14:21.320Z,100585.97
2023-03-12T22:16:28.692Z,100580.06
2023-03-12T22:18:36.568Z,100572.09
2023-03-12T22:20:41.529Z,100567.03
2023-03-12T22:22:51.785Z,100565.06
2023-03-12T22:25:00.264Z,100563.53
2023-03-12T22:27:07.608Z,100568.66
2023-03-12T22:29:14.269Z,100560.69
2023-03-12T22:31:28.094Z,100560.75
2023-03-12T22:33:39.153Z,100553.75
2023-03-12T22:35:48.954Z,100551.53
2023-03-12T22:37:56.603Z,100547.94
2023-03-12T22:40:08.051Z,100535.75
2023-03-12T22:42:13.112Z,100527.00
2023-03-12T22:44:19.210Z,100521.75
2023-03-12T22:46:45.238Z,100519.19
2023-03-12T22:48:55.094Z,100500.13
2023-03-12T22:51:01.022Z,100495.56
2023-03-12T22:53:06.235Z,100497.38
2023-03-12T22:55:12.178Z,100484.13
2023-03-12T22:57:21.068Z,100481.53
2023-03-12T22:59:28.680Z,100473.66
2023-03-12T23:01:37.590Z,100471.06
2023-03-12T23:03:45.005Z,100466.69
2023-03-12T23:05:49.902Z,100470.22
2023-03-12T23:07:57.128Z,100455.31
2023-03-12T23:10:14.173Z,100454.44
2023-03-12T23:12:21.584Z,100439.41
2023-03-12T23:14:29.018Z,100433.75
2023-03-12T23:16:40.518Z,100428.59
2023-03-12T23:18:49.932Z,100422.63
2023-03-12T23:21:04.035Z,100429.69
2023-03-12T23:23:09.598Z,100416.28
2023-03-12T23:25:15.280Z,100414.44
2023-03-12T23:27:29.211Z,100405.81
2023-03-12T23:29:38.328Z,100395.47
2023-03-12T23:31:46.195Z,100384.06
2023-03-12T23:33:52.451Z,100381.31
2023-03-12T23:36:03.125Z,100369.84
2023-03-12T23:38:11.393Z,100375.88
2023-03-12T23:40:22.762Z,100361.69
2023-03-12T23:42:32.055Z,100353.94
2023-03-12T23:44:46.730Z,100345.25
2023-03-12T23:46:54.707Z,100338.06
2023-03-12T23:49:02.257Z,100329.63
2023-03-12T23:51:09.312Z,100326.25
2023-03-12T23:53:17.966Z,100323.81
2023-03-12T23:55:25.591Z,100316.88
2023-03-12T23:57:31.499Z,100315.03
2023-03-12T23:59:40.187Z,100307.28
